createdAt,value
2023-04-02T00:02:22.694Z,98258.81
2023-04-02T00:05:31.600Z,98256.94
2023-04-02T00:08:03.302Z,98257.42
2023-04-02T00:10:35.196Z,98255.33
2023-04-02T00:13:05.243Z,98258.84
2023-04-02T00:15:33.740Z,98256.67
2023-04-02T00:18:02.043Z,98261.25
2023-04-02T00:20:35.229Z,98261.38
2023-04-02T00:23:03.323Z,98261.25
2023-04-02T00:25:36.682Z,98266.83
2023-04-02T00:28:05.107Z,98267.02
2023-04-02T00:30:35.972Z,98270.17
2023-04-02T00:33:04.561Z,98271.98
2023-04-02T00:35:33.237Z,98270.03
2023-04-02T00:38:18.285Z,98269.85
2023-04-02T00:40:46.351Z,98269.13
2023-04-02T00:43:16.750Z,98269.61
2023-04-02T00:45:51.272Z,98267.41
2023-04-02T00:48:31.945Z,98270.05
2023-04-02T00:51:01.388Z,98267.19
2023-04-02T00:53:29.919Z,98268.53
2023-04-02T00:55:59.068Z,98269.41
2023-04-02T00:58:33.338Z,98272.29
2023-04-02T01:01:16.919Z,98271.20
2023-04-02T01:04:16.824Z,98271.55
2023-04-02T01:06:46.237Z,98272.41
2023-04-02T01:09:46.370Z,98278.27
2023-04-02T01:12:28.243Z,98274.75
2023-04-02T01:15:20.080Z,98273.59
2023-04-02T01:18:18.258Z,98270.92
2023-04-02T01:21:00.159Z,98269.43
2023-04-02T01:24:07.385Z,98271.33
2023-04-02T01:26:51.197Z,98268.82
2023-04-02T01:29:24.105Z,98268.79
2023-04-02T01:31:53.449Z,98270.14
2023-04-02T01:34:24.429Z,98275.00
2023-04-02T01:36:59.888Z,98275.27
2023-04-02T01:39:40.103Z,98279.70
2023-04-02T01:42:25.798Z,98281.98
2023-04-02T01:45:01.530Z,98282.30
2023-04-02T01:47:30.322Z,98284.59
2023-04-02T01:50:24.643Z,98282.12
2023-04-02T01:52:54.805Z,98283.64
2023-04-02T01:55:39.506Z,98280.52
2023-04-02T01:58:11.578Z,98279.44
2023-04-02T02:00:48.726Z,98282.15
2023-04-02T02:03:17.158Z,98278.77
2023-04-02T02:05:46.639Z,98278.33
2023-04-02T02:08:28.442Z,98275.95
2023-04-02T02:10:57.101Z,98280.19
2023-04-02T02:13:25.661Z,98279.71
2023-04-02T02:15:59.977Z,98279.18
2023-04-02T02:18:28.225Z,98281.16
2023-04-02T02:20:59.874Z,98280.08
2023-04-02T02:23:28.210Z,98281.74
2023-04-02T02:25:56.629Z,98281.35
2023-04-02T02:28:29.681Z,98277.89
2023-04-02T02:30:59.487Z,98279.66
2023-04-02T02:33:39.147Z,98279.85
2023-04-02T02:36:15.745Z,98280.29
2023-04-02T02:38:57.790Z,98278.93
2023-04-02T02:41:45.300Z,98281.83
2023-04-02T02:44:19.980Z,98285.30
2023-04-02T02:46:54.329Z,98284.48
2023-04-02T02:49:26.616Z,98284.64
2023-04-02T02:52:13.253Z,98284.58
2023-04-02T02:54:55.267Z,98287.40
2023-04-02T02:57:31.137Z,98285.17
2023-04-02T03:00:00.170Z,98290.86
2023-04-02T03:02:29.164Z,98288.77
2023-04-02T03:04:58.583Z,98289.91
2023-04-02T03:07:27.416Z,98296.04
2023-04-02T03:10:23.307Z,98293.91
2023-04-02T03:13:15.026Z,98294.96
2023-04-02T03:16:06.165Z,98302.58
2023-04-02T03:19:00.599Z,98297.61
2023-04-02T03:22:03.049Z,98300.69
2023-04-02T03:24:54.815Z,98304.40
2023-04-02T03:27:31.342Z,98306.59
2023-04-02T03:30:23.716Z,98303.77
2023-04-02T03:32:55.114Z,98306.33
2023-04-02T03:35:41.127Z,98309.58
2023-04-02T03:38:23.047Z,98312.77
2023-04-02T03:41:09.500Z,98312.96
2023-04-02T03:43:42.632Z,98316.34
2023-04-02T03:46:31.880Z,98315.78
2023-04-02T03:49:02.540Z,98314.22
2023-04-02T03:51:33.654Z,98317.56
2023-04-02T03:54:02.714Z,98323.28
2023-04-02T03:56:39.910Z,98325.58
2023-04-02T03:59:21.498Z,98325.13
2023-04-02T04:02:02.367Z,98322.02
2023-04-02T04:04:31.898Z,98322.91
2023-04-02T04:07:00.322Z,98326.80
2023-04-02T04:09:34.053Z,98328.58
2023-04-02T04:12:26.862Z,98331.17
2023-04-02T04:15:01.412Z,98332.55
2023-04-02T04:17:40.730Z,98334.96
2023-04-02T04:20:22.024Z,98337.42
2023-04-02T04:22:56.024Z,98337.98
2023-04-02T04:25:30.102Z,98342.71
2023-04-02T04:28:25.422Z,98344.40
2023-04-02T04:31:04.100Z,98343.85
2023-04-02T04:33:42.143Z,98343.19
2023-04-02T04:36:29.004Z,98345.42
2023-04-02T04:39:14.627Z,98351.37
2023-04-02T04:41:46.590Z,98353.29
2023-04-02T04:44:17.655Z,98351.48
2023-04-02T04:46:51.328Z,98353.45
2023-04-02T04:49:46.463Z,98352.85
2023-04-02T04:52:33.266Z,98354.81
2023-04-02T04:55:01.304Z,98354.63
2023-04-02T04:57:36.867Z,98358.88
2023-04-02T05:01:28.318Z,98358.56
2023-04-02T05:04:05.112Z,98364.70
2023-04-02T05:06:51.148Z,98366.83
2023-04-02T05:09:35.468Z,98364.29
2023-04-02T05:12:22.047Z,98366.09
2023-04-02T05:15:04.915Z,98364.83
2023-04-02T05:17:48.877Z,98366.66
2023-04-02T05:20:31.976Z,98366.73
2023-04-02T05:23:19.152Z,98362.67
2023-04-02T05:26:09.349Z,98365.48
2023-04-02T05:28:51.749Z,98367.69
2023-04-02T05:31:31.138Z,98368.98
2023-04-02T05:33:59.520Z,98368.62
2023-04-02T05:36:29.378Z,98370.20
2023-04-02T05:38:59.304Z,98373.83
2023-04-02T05:41:43.440Z,98370.48
2023-04-02T05:44:22.479Z,98375.77
2023-04-02T05:47:12.464Z,98378.38
2023-04-02T05:49:45.327Z,98373.04
2023-04-02T05:52:16.303Z,98378.55
2023-04-02T05:54:49.700Z,98375.25
2023-04-02T05:57:27.058Z,98377.30
2023-04-02T06:00:01.382Z,98382.11
2023-04-02T06:02:55.001Z,98383.17
2023-04-02T06:05:24.671Z,98385.62
2023-04-02T06:08:00.145Z,98384.96
2023-04-02T06:10:31.375Z,98390.73
2023-04-02T06:13:08.640Z,98394.34
2023-04-02T06:15:42.575Z,98397.77
2023-04-02T06:20:26.237Z,98394.34
2023-04-02T06:23:02.687Z,98393.35
2023-04-02T06:25:42.856Z,98398.15
2023-04-02T06:28:19.206Z,98402.23
2023-04-02T06:31:00.056Z,98406.26
2023-04-02T06:33:36.584Z,98405.66
2023-04-02T06:36:05.649Z,98408.70
2023-04-02T06:40:38.530Z,98407.84
2023-04-02T06:43:28.962Z,98415.20
2023-04-02T06:46:11.133Z,98419.79
2023-04-02T06:49:01.970Z,98418.48
2023-04-02T06:51:30.246Z,98420.16
2023-04-02T06:54:00.157Z,98418.49
2023-04-02T06:56:51.471Z,98422.02
2023-04-02T06:59:43.576Z,98424.56
2023-04-02T07:02:21.193Z,98427.58
2023-04-02T07:04:49.364Z,98426.30
2023-04-02T07:07:19.044Z,98427.12
2023-04-02T07:09:48.953Z,98428.34
2023-04-02T07:12:20.230Z,98429.01
2023-04-02T07:14:49.643Z,98431.06
2023-04-02T07:17:18.432Z,98434.58
2023-04-02T07:19:49.667Z,98433.93
2023-04-02T07:22:20.617Z,98436.29
2023-04-02T07:24:53.260Z,98444.45
2023-04-02T07:27:21.632Z,98442.91
2023-04-02T07:29:49.935Z,98445.56
2023-04-02T07:32:19.545Z,98444.95
2023-04-02T07:34:48.981Z,98443.02
2023-04-02T07:37:20.858Z,98444.84
2023-04-02T07:39:48.771Z,98444.13
2023-04-02T07:42:16.791Z,98447.27
2023-04-02T07:44:45.439Z,98446.96
2023-04-02T07:47:13.362Z,98448.77
2023-04-02T07:49:41.918Z,98450.27
2023-04-02T07:52:10.025Z,98451.04
2023-04-02T07:54:38.574Z,98450.65
2023-04-02T07:57:07.103Z,98457.48
2023-04-02T07:59:35.630Z,98452.17
2023-04-02T08:02:04.707Z,98451.24
2023-04-02T08:04:33.026Z,98451.00
2023-04-02T08:07:02.288Z,98454.08
2023-04-02T08:09:30.445Z,98452.09
2023-04-02T08:12:07.089Z,98452.57
2023-04-02T08:14:35.159Z,98456.78
2023-04-02T08:17:03.829Z,98454.45
2023-04-02T08:19:38.986Z,98451.23
2023-04-02T08:22:13.059Z,98455.86
2023-04-02T08:24:41.103Z,98458.69
2023-04-02T08:27:13.701Z,98459.38
2023-04-02T08:29:41.593Z,98461.95
2023-04-02T08:32:11.552Z,98463.09
2023-04-02T08:34:39.869Z,98465.81
2023-04-02T08:37:13.259Z,98463.37
2023-04-02T08:39:42.217Z,98465.48
2023-04-02T08:42:16.554Z,98467.66
2023-04-02T08:44:47.709Z,98467.02
2023-04-02T08:47:16.095Z,98465.90
2023-04-02T08:49:58.544Z,98473.63
2023-04-02T08:52:29.201Z,98476.02
2023-04-02T08:54:58.256Z,98479.73
2023-04-02T08:57:47.019Z,98478.27
2023-04-02T09:00:38.498Z,98485.36
2023-04-02T09:03:13.923Z,98482.27
2023-04-02T09:05:42.669Z,98484.43
2023-04-02T09:08:27.161Z,98482.27
2023-04-02T09:11:11.081Z,98484.73
2023-04-02T09:13:46.604Z,98487.63
2023-04-02T09:16:17.603Z,98488.58
2023-04-02T09:18:47.192Z,98486.83
2023-04-02T09:21:43.834Z,98492.70
2023-04-02T09:24:13.269Z,98494.14
2023-04-02T09:26:41.626Z,98496.05
2023-04-02T09:29:12.808Z,98492.81
2023-04-02T09:31:43.318Z,98494.90
2023-04-02T09:34:33.992Z,98500.07
2023-04-02T09:37:25.626Z,98493.73
2023-04-02T09:39:54.038Z,98501.57
2023-04-02T09:42:31.808Z,98504.48
2023-04-02T09:45:21.297Z,98501.95
2023-04-02T09:47:50.491Z,98507.23
2023-04-02T09:50:21.652Z,98508.83
2023-04-02T09:52:49.968Z,98507.43
2023-04-02T09:55:24.322Z,98511.62
2023-04-02T09:57:53.614Z,98512.36
2023-04-02T10:00:32.282Z,98515.13
2023-04-02T10:03:26.785Z,98511.14
2023-04-02T10:06:06.465Z,98511.49
2023-04-02T10:08:39.445Z,98511.80
2023-04-02T10:11:11.517Z,98517.36
2023-04-02T10:14:00.666Z,98518.92
2023-04-02T10:16:47.146Z,98515.96
2023-04-02T10:19:24.030Z,98520.36
2023-04-02T10:21:54.518Z,98521.23
2023-04-02T10:24:22.834Z,98524.96
2023-04-02T10:27:18.403Z,98529.20
2023-04-02T10:30:07.017Z,98530.88
2023-04-02T10:32:52.083Z,98530.01
2023-04-02T10:35:32.319Z,98534.24
2023-04-02T10:38:21.851Z,98535.85
2023-04-02T10:40:56.905Z,98535.92
2023-04-02T10:43:47.603Z,98532.00
2023-04-02T10:46:38.958Z,98535.41
2023-04-02T10:49:22.312Z,98535.50
2023-04-02T10:52:10.070Z,98536.06
2023-04-02T10:54:51.714Z,98535.02
2023-04-02T10:57:29.890Z,98538.14
2023-04-02T11:00:08.061Z,98541.39
2023-04-02T11:03:02.830Z,98545.48
2023-04-02T11:05:43.347Z,98542.38
2023-04-02T11:08:25.951Z,98540.48
2023-04-02T11:10:57.928Z,98542.20
2023-04-02T11:13:43.491Z,98544.77
2023-04-02T11:16:15.237Z,98546.42
2023-04-02T11:18:44.932Z,98543.34
2023-04-02T11:21:50.968Z,98547.75
2023-04-02T11:24:37.132Z,98551.82
2023-04-02T11:27:12.470Z,98552.51
2023-04-02T11:29:46.978Z,98551.31
2023-04-02T11:32:21.820Z,98548.30
2023-04-02T11:35:06.762Z,98549.58
2023-04-02T11:37:45.281Z,98550.01
2023-04-02T11:40:16.567Z,98549.63
2023-04-02T11:42:45.440Z,98549.85
2023-04-02T11:45:20.890Z,98552.58
2023-04-02T11:48:02.080Z,98552.45
2023-04-02T11:50:35.896Z,98552.19
2023-04-02T11:53:06.807Z,98554.10
2023-04-02T11:55:37.045Z,98554.48
2023-04-02T11:58:43.009Z,98558.35
2023-04-02T12:01:45.525Z,98556.41
2023-04-02T12:04:37.820Z,98558.59
2023-04-02T12:07:17.653Z,98557.44
2023-04-02T12:09:49.820Z,98558.52
2023-04-02T12:12:27.631Z,98564.20
2023-04-02T12:14:56.844Z,98565.48
2023-04-02T12:17:38.144Z,98564.91
2023-04-02T12:20:09.746Z,98565.32
2023-04-02T12:22:39.445Z,98569.35
2023-04-02T12:25:30.071Z,98567.62
2023-04-02T12:28:11.471Z,98568.39
2023-04-02T12:30:39.691Z,98568.96
2023-04-02T12:33:22.267Z,98572.88
2023-04-02T12:35:51.264Z,98569.66
2023-04-02T12:38:31.173Z,98569.34
2023-04-02T12:41:04.602Z,98567.14
2023-04-02T12:43:34.539Z,98573.51
2023-04-02T12:46:04.842Z,98568.25
2023-04-02T12:48:33.747Z,98574.40
2023-04-02T12:51:02.703Z,98575.79
2023-04-02T12:53:38.966Z,98578.36
2023-04-02T12:56:08.370Z,98575.77
2023-04-02T12:58:37.368Z,98573.25
2023-04-02T13:01:12.453Z,98572.65
2023-04-02T13:03:41.218Z,98573.75
2023-04-02T13:06:22.196Z,98573.09
2023-04-02T13:08:50.514Z,98573.19
2023-04-02T13:11:18.582Z,98578.77
2023-04-02T13:13:48.554Z,98574.77
2023-04-02T13:16:20.094Z,98573.88
2023-04-02T13:18:51.131Z,98574.64
2023-04-02T13:21:19.689Z,98576.42
2023-04-02T13:23:48.089Z,98577.70
2023-04-02T13:26:17.903Z,98574.79
2023-04-02T13:29:01.790Z,98574.49
2023-04-02T13:31:32.254Z,98580.73
2023-04-02T13:34:00.791Z,98576.88
2023-04-02T13:36:31.899Z,98575.29
2023-04-02T13:39:00.019Z,98577.09
2023-04-02T13:41:29.772Z,98576.31
2023-04-02T13:44:00.565Z,98575.27
2023-04-02T13:46:30.732Z,98575.41
2023-04-02T13:49:00.863Z,98572.40
2023-04-02T13:51:38.459Z,98577.91
2023-04-02T13:54:11.871Z,98581.01
2023-04-02T13:56:41.366Z,98576.45
2023-04-02T13:59:09.366Z,98573.78
2023-04-02T14:01:39.875Z,98576.80
2023-04-02T14:04:08.981Z,98576.40
2023-04-02T14:07:06.757Z,98578.73
2023-04-02T14:09:54.074Z,98578.92
2023-04-02T14:12:41.679Z,98574.42
2023-04-02T14:15:31.662Z,98577.93
2023-04-02T14:18:36.779Z,98579.64
2023-04-02T14:21:26.611Z,98582.36
2023-04-02T14:24:10.019Z,98579.90
2023-04-02T14:27:35.027Z,98579.30
2023-04-02T14:30:41.862Z,98576.98
2023-04-02T14:33:17.968Z,98581.80
2023-04-02T14:35:48.122Z,98582.63
2023-04-02T14:38:30.597Z,98578.27
2023-04-02T14:41:08.761Z,98580.64
2023-04-02T14:43:46.103Z,98580.23
2023-04-02T14:46:14.736Z,98584.29
2023-04-02T14:49:09.246Z,98581.60
2023-04-02T14:51:50.531Z,98586.55
2023-04-02T14:54:37.888Z,98584.35
2023-04-02T14:57:16.983Z,98584.06
2023-04-02T15:00:05.166Z,98590.19
2023-04-02T15:02:42.503Z,98591.14
2023-04-02T15:05:18.443Z,98591.41
2023-04-02T15:07:56.167Z,98590.35
2023-04-02T15:10:37.201Z,98590.27
2023-04-02T15:13:08.452Z,98593.48
2023-04-02T15:15:56.641Z,98590.70
2023-04-02T15:18:27.134Z,98590.84
2023-04-02T15:20:55.461Z,98596.19
2023-04-02T15:23:56.026Z,98598.97
2023-04-02T15:26:49.593Z,98595.37
2023-04-02T15:29:29.308Z,98595.96
2023-04-02T15:32:05.329Z,98595.75
2023-04-02T15:35:20.527Z,98594.22
2023-04-02T15:37:56.125Z,98597.05
2023-04-02T15:40:50.090Z,98597.90
2023-04-02T15:43:39.145Z,98602.34
2023-04-02T15:46:45.818Z,98604.79
2023-04-02T15:49:20.358Z,98605.77
2023-04-02T15:52:21.073Z,98605.54
2023-04-02T15:55:02.498Z,98603.78
2023-04-02T15:57:51.150Z,98604.64
2023-04-02T16:00:27.830Z,98602.86
2023-04-02T16:03:29.478Z,98604.66
2023-04-02T16:06:13.002Z,98609.90
2023-04-02T16:09:04.652Z,98612.12
2023-04-02T16:11:33.818Z,98612.38
2023-04-02T16:14:29.468Z,98609.92
2023-04-02T16:17:14.224Z,98612.59
2023-04-02T16:19:50.504Z,98613.39
2023-04-02T16:22:23.507Z,98613.80
2023-04-02T16:25:01.622Z,98615.88
2023-04-02T16:27:38.018Z,98616.28
2023-04-02T16:30:28.017Z,98617.63
2023-04-02T16:33:05.982Z,98616.64
2023-04-02T16:35:50.497Z,98613.64
2023-04-02T16:38:38.909Z,98613.31
2023-04-02T16:41:11.123Z,98618.14
2023-04-02T16:44:15.976Z,98616.77
2023-04-02T16:47:29.703Z,98613.13
2023-04-02T16:50:04.008Z,98615.41
2023-04-02T16:53:04.098Z,98613.27
2023-04-02T16:55:38.037Z,98613.04
2023-04-02T16:58:09.191Z,98616.83
2023-04-02T17:00:56.373Z,98616.89
2023-04-02T17:03:43.442Z,98621.52
2023-04-02T17:06:32.316Z,98622.61
2023-04-02T17:09:04.035Z,98628.73
2023-04-02T17:11:49.297Z,98627.32
2023-04-02T17:14:23.026Z,98629.73
2023-04-02T17:16:53.321Z,98632.62
2023-04-02T17:19:24.010Z,98629.56
2023-04-02T17:21:53.569Z,98630.91
2023-04-02T17:24:24.540Z,98632.14
2023-04-02T17:27:01.053Z,98638.46
2023-04-02T17:29:36.956Z,98640.30
2023-04-02T17:32:07.033Z,98637.48
2023-04-02T17:34:35.489Z,98638.84
2023-04-02T17:37:09.652Z,98643.69
2023-04-02T17:39:49.446Z,98643.17
2023-04-02T17:42:49.223Z,98649.73
2023-04-02T17:45:23.965Z,98651.27
2023-04-02T17:47:51.955Z,98655.66
2023-04-02T17:50:33.614Z,98655.98
2023-04-02T17:53:33.982Z,98660.41
2023-04-02T17:56:41.036Z,98661.22
2023-04-02T17:59:26.429Z,98667.22
2023-04-02T18:01:58.106Z,98667.18
2023-04-02T18:04:42.440Z,98669.65
2023-04-02T18:07:18.797Z,98673.58
2023-04-02T18:09:56.036Z,98674.95
2023-04-02T18:12:43.016Z,98674.60
2023-04-02T18:15:30.180Z,98679.93
2023-04-02T18:18:03.727Z,98676.45
2023-04-02T18:20:39.406Z,98681.52
2023-04-02T18:23:21.167Z,98679.60
2023-04-02T18:26:05.679Z,98680.05
2023-04-02T18:28:38.154Z,98679.52
2023-04-02T18:31:45.437Z,98686.38
2023-04-02T18:34:29.887Z,98684.95
2023-04-02T18:37:16.900Z,98684.88
2023-04-02T18:39:44.990Z,98680.73
2023-04-02T18:42:37.627Z,98685.40
2023-04-02T18:45:38.369Z,98684.70
2023-04-02T18:48:36.035Z,98684.83
2023-04-02T18:51:06.515Z,98682.95
2023-04-02T18:53:36.064Z,98686.84
2023-04-02T18:57:25.121Z,98685.05
2023-04-02T19:00:16.246Z,98687.91
2023-04-02T19:02:57.876Z,98685.83
2023-04-02T19:05:41.710Z,98686.83
2023-04-02T19:08:21.938Z,98686.45
2023-04-02T19:11:14.035Z,98687.64
2023-04-02T19:13:49.009Z,98686.58
2023-04-02T19:16:17.331Z,98685.27
2023-04-02T19:19:07.270Z,98687.86
2023-04-02T19:21:56.524Z,98684.73
2023-04-02T19:24:50.695Z,98684.55
2023-04-02T19:27:33.959Z,98686.70
2023-04-02T19:30:32.350Z,98686.48
2023-04-02T19:33:12.777Z,98685.95
2023-04-02T19:35:54.093Z,98686.81
2023-04-02T19:38:54.712Z,98686.53
2023-04-02T19:41:39.575Z,98688.29
2023-04-02T19:44:11.706Z,98688.41
2023-04-02T19:46:39.977Z,98693.05
2023-04-02T19:49:11.087Z,98690.91
2023-04-02T19:51:39.198Z,98691.53
2023-04-02T19:54:07.313Z,98689.29
2023-04-02T19:56:35.486Z,98691.86
2023-04-02T19:59:17.205Z,98690.05
2023-04-02T20:01:46.790Z,98693.77
2023-04-02T20:04:14.965Z,98693.42
2023-04-02T20:06:43.743Z,98692.47
2023-04-02T20:09:11.748Z,98693.18
2023-04-02T20:11:39.791Z,98692.77
2023-04-02T20:14:09.092Z,98695.45
2023-04-02T20:16:39.055Z,98695.86
2023-04-02T20:19:07.209Z,98693.79
2023-04-02T20:21:39.053Z,98692.95
2023-04-02T20:24:07.757Z,98690.87
2023-04-02T20:26:36.213Z,98691.73
2023-04-02T20:29:04.908Z,98689.87
2023-04-02T20:31:33.721Z,98687.16
2023-04-02T20:34:05.094Z,98692.65
2023-04-02T20:36:33.500Z,98688.10
2023-04-02T20:39:01.598Z,98691.91
2023-04-02T20:41:29.560Z,98692.57
2023-04-02T20:43:57.589Z,98693.48
2023-04-02T20:46:26.304Z,98694.11
2023-04-02T20:48:54.486Z,98691.45
2023-04-02T20:51:22.432Z,98692.33
2023-04-02T20:53:50.597Z,98694.25
2023-04-02T20:56:22.395Z,98689.34
2023-04-02T20:58:50.790Z,98690.10
2023-04-02T21:01:23.689Z,98693.50
2023-04-02T21:03:55.111Z,98697.52
2023-04-02T21:06:24.058Z,98693.40
2023-04-02T21:08:52.549Z,98695.65
2023-04-02T21:11:22.522Z,98693.83
2023-04-02T21:13:52.838Z,98695.52
2023-04-02T21:16:22.848Z,98699.50
2023-04-02T21:18:52.198Z,98695.84
2023-04-02T21:21:21.044Z,98694.38
2023-04-02T21:23:59.327Z,98695.46
2023-04-02T21:26:28.741Z,98693.71
2023-04-02T21:28:56.870Z,98694.88
2023-04-02T21:31:26.410Z,98691.80
2023-04-02T21:33:56.661Z,98692.23
2023-04-02T21:36:26.502Z,98692.99
2023-04-02T21:39:11.653Z,98689.27
2023-04-02T21:41:41.725Z,98691.73
2023-04-02T21:44:13.194Z,98690.38
2023-04-02T21:46:44.144Z,98690.80
2023-04-02T21:49:16.901Z,98688.72
2023-04-02T21:51:46.020Z,98688.45
2023-04-02T21:54:16.971Z,98682.73
2023-04-02T21:56:45.996Z,98684.16
2023-04-02T21:59:14.830Z,98683.81
2023-04-02T22:01:51.289Z,98685.59
2023-04-02T22:04:22.484Z,98682.55
2023-04-02T22:06:50.994Z,98683.36
2023-04-02T22:09:21.210Z,98688.02
2023-04-02T22:11:51.351Z,98687.44
2023-04-02T22:14:20.071Z,98687.50
2023-04-02T22:16:48.154Z,98681.82
2023-04-02T22:19:20.512Z,98680.75
2023-04-02T22:21:48.563Z,98683.45
2023-04-02T22:24:18.993Z,98681.57
2023-04-02T22:26:47.090Z,98683.31
2023-04-02T22:29:15.770Z,98681.59
2023-04-02T22:31:44.066Z,98680.12
2023-04-02T22:34:13.127Z,98683.11
2023-04-02T22:36:41.449Z,98682.96
2023-04-02T22:39:12.219Z,98683.69
2023-04-02T22:41:40.423Z,98679.62
2023-04-02T22:44:12.504Z,98678.84
2023-04-02T22:46:41.645Z,98682.39
2023-04-02T22:49:11.812Z,98680.64
2023-04-02T22:51:40.062Z,98678.63
2023-04-02T22:54:08.659Z,98677.55
2023-04-02T22:56:37.710Z,98681.17
2023-04-02T22:59:05.836Z,98675.95
2023-04-02T23:01:35.513Z,98679.21
2023-04-02T23:04:05.409Z,98683.60
2023-04-02T23:06:34.945Z,98676.54
2023-04-02T23:09:04.283Z,98679.19
2023-04-02T23:11:41.445Z,98675.79
2023-04-02T23:14:09.633Z,98671.05
2023-04-02T23:16:37.928Z,98669.33
2023-04-02T23:19:07.576Z,98666.33
2023-04-02T23:21:35.819Z,98667.46
2023-04-02T23:24:03.869Z,98666.23
2023-04-02T23:26:32.366Z,98664.02
2023-04-02T23:29:00.887Z,98662.09
2023-04-02T23:31:30.077Z,98656.17
2023-04-02T23:33:58.614Z,98659.81
2023-04-02T23:36:28.946Z,98657.57
2023-04-02T23:38:59.799Z,98653.61
2023-04-02T23:41:28.337Z,98653.05
2023-04-02T23:43:56.533Z,98650.52
2023-04-02T23:46:24.833Z,98649.77
2023-04-02T23:48:53.263Z,98654.23
2023-04-02T23:51:22.193Z,98645.25
2023-04-02T23:53:50.754Z,98651.00
2023-04-02T23:56:21.100Z,98649.61
2023-04-02T23:58:49.457Z,98647.45
